sensor_id;sensor_type;location;lat;lon;timestamp;temperature;humidity
5919;DHT22;2985;48.142;16.344;2022-09-17T00:00:29;13.40;99.90
5919;DHT22;2985;48.142;16.344;2022-09-17T00:05:39;13.40;99.90
5919;DHT22;2985;48.142;16.344;2022-09-17T00:10:49;13.40;99.90
5919;DHT22;2985;48.142;16.344;2022-09-17T00:15:58;13.30;99.90
5919;DHT22;2985;48.142;16.344;2022-09-17T00:21:15;13.30;99.90
5919;DHT22;2985;48.142;16.344;2022-09-17T00:26:25;13.30;99.90
5919;DHT22;2985;48.142;16.344;2022-09-17T00:31:36;13.30;99.90
5919;DHT22;2985;48.142;16.344;2022-09-17T00:36:45;13.30;99.90
5919;DHT22;2985;48.142;16.344;2022-09-17T00:41:54;13.30;99.90
5919;DHT22;2985;48.142;16.344;2022-09-17T00:47:03;13.30;99.90
5919;DHT22;2985;48.142;16.344;2022-09-17T00:52:26;13.30;99.90
5919;DHT22;2985;48.142;16.344;2022-09-17T00:57:35;13.30;99.90
5919;DHT22;2985;48.142;16.344;2022-09-17T01:02:45;13.20;99.90
5919;DHT22;2985;48.142;16.344;2022-09-17T01:08:46;13.20;99.90
5919;DHT22;2985;48.142;16.344;2022-09-17T01:36:02;13.20;99.90
5919;DHT22;2985;48.142;16.344;2022-09-17T01:46:50;13.10;99.90
5919;DHT22;2985;48.142;16.344;2022-09-17T01:52:02;13.10;99.90
5919;DHT22;2985;48.142;16.344;2022-09-17T01:57:29;13.10;99.90
5919;DHT22;2985;48.142;16.344;2022-09-17T02:08:34;12.90;99.90
5919;DHT22;2985;48.142;16.344;2022-09-17T02:13:57;12.90;99.90
5919;DHT22;2985;48.142;16.344;2022-09-17T02:19:15;12.90;99.90
5919;DHT22;2985;48.142;16.344;2022-09-17T02:29:58;13.00;99.90
5919;DHT22;2985;48.142;16.344;2022-09-17T02:35:11;13.00;99.90
5919;DHT22;2985;48.142;16.344;2022-09-17T02:40:24;13.00;99.90
5919;DHT22;2985;48.142;16.344;2022-09-17T02:57:10;13.10;99.90
5919;DHT22;2985;48.142;16.344;2022-09-17T03:02:37;13.00;99.90
5919;DHT22;2985;48.142;16.344;2022-09-17T03:07:48;12.90;99.90
5919;DHT22;2985;48.142;16.344;2022-09-17T03:12:58;13.10;99.90
5919;DHT22;2985;48.142;16.344;2022-09-17T03:18:07;13.20;99.90
5919;DHT22;2985;48.142;16.344;2022-09-17T03:23:17;13.20;99.90
5919;DHT22;2985;48.142;16.344;2022-09-17T03:28:26;13.20;99.90
5919;DHT22;2985;48.142;16.344;2022-09-17T03:33:36;13.20;99.90
5919;DHT22;2985;48.142;16.344;2022-09-17T03:38:45;13.10;99.90
5919;DHT22;2985;48.142;16.344;2022-09-17T03:43:54;13.00;99.90
5919;DHT22;2985;48.142;16.344;2022-09-17T03:49:04;13.00;99.90
5919;DHT22;2985;48.142;16.344;2022-09-17T03:54:13;13.00;99.90
5919;DHT22;2985;48.142;16.344;2022-09-17T03:59:22;13.00;99.90
5919;DHT22;2985;48.142;16.344;2022-09-17T04:04:32;12.90;99.90
5919;DHT22;2985;48.142;16.344;2022-09-17T04:09:41;12.90;99.90
5919;DHT22;2985;48.142;16.344;2022-09-17T04:14:50;12.90;99.90
5919;DHT22;2985;48.142;16.344;2022-09-17T04:19:59;12.80;99.90
5919;DHT22;2985;48.142;16.344;2022-09-17T04:25:09;12.80;99.90
5919;DHT22;2985;48.142;16.344;2022-09-17T04:30:19;12.70;99.90
5919;DHT22;2985;48.142;16.344;2022-09-17T04:40:39;12.70;99.90
5919;DHT22;2985;48.142;16.344;2022-09-17T04:45:50;12.70;99.90
5919;DHT22;2985;48.142;16.344;2022-09-17T04:51:00;12.60;99.90
5919;DHT22;2985;48.142;16.344;2022-09-17T04:56:09;12.60;99.90
5919;DHT22;2985;48.142;16.344;2022-09-17T05:01:18;12.60;99.90
5919;DHT22;2985;48.142;16.344;2022-09-17T05:06:27;12.70;99.90
5919;DHT22;2985;48.142;16.344;2022-09-17T05:11:36;12.70;99.90
5919;DHT22;2985;48.142;16.344;2022-09-17T05:16:45;12.70;99.90
5919;DHT22;2985;48.142;16.344;2022-09-17T05:21:54;12.70;99.90
5919;DHT22;2985;48.142;16.344;2022-09-17T05:27:07;12.80;99.90
5919;DHT22;2985;48.142;16.344;2022-09-17T05:32:16;12.80;99.90
5919;DHT22;2985;48.142;16.344;2022-09-17T05:37:26;12.80;99.90
5919;DHT22;2985;48.142;16.344;2022-09-17T05:42:35;12.80;99.90
5919;DHT22;2985;48.142;16.344;2022-09-17T05:47:44;12.80;99.90
5919;DHT22;2985;48.142;16.344;2022-09-17T05:52:54;12.90;99.90
5919;DHT22;2985;48.142;16.344;2022-09-17T05:58:17;12.90;99.90
5919;DHT22;2985;48.142;16.344;2022-09-17T06:03:27;13.00;99.90
5919;DHT22;2985;48.142;16.344;2022-09-17T06:08:36;13.00;99.90
5919;DHT22;2985;48.142;16.344;2022-09-17T06:13:45;13.00;99.90
5919;DHT22;2985;48.142;16.344;2022-09-17T06:18:54;13.00;99.90
5919;DHT22;2985;48.142;16.344;2022-09-17T06:24:04;13.00;99.90
5919;DHT22;2985;48.142;16.344;2022-09-17T06:29:13;13.00;99.90
5919;DHT22;2985;48.142;16.344;2022-09-17T06:34:23;13.10;99.90
5919;DHT22;2985;48.142;16.344;2022-09-17T06:39:32;13.10;99.90
5919;DHT22;2985;48.142;16.344;2022-09-17T06:44:42;13.00;99.90
5919;DHT22;2985;48.142;16.344;2022-09-17T06:49:51;13.00;99.90
5919;DHT22;2985;48.142;16.344;2022-09-17T06:55:01;13.10;99.90
5919;DHT22;2985;48.142;16.344;2022-09-17T07:00:11;13.10;99.90
5919;DHT22;2985;48.142;16.344;2022-09-17T07:05:20;13.20;99.90
5919;DHT22;2985;48.142;16.344;2022-09-17T07:10:31;13.20;99.90
5919;DHT22;2985;48.142;16.344;2022-09-17T07:15:40;13.20;99.90
5919;DHT22;2985;48.142;16.344;2022-09-17T07:20:59;13.10;99.90
5919;DHT22;2985;48.142;16.344;2022-09-17T07:31:23;13.20;99.90
5919;DHT22;2985;48.142;16.344;2022-09-17T07:36:32;13.30;99.90
5919;DHT22;2985;48.142;16.344;2022-09-17T07:41:41;13.20;99.90
5919;DHT22;2985;48.142;16.344;2022-09-17T07:46:50;13.30;99.90
5919;DHT22;2985;48.142;16.344;2022-09-17T07:51:59;13.40;99.90
5919;DHT22;2985;48.142;16.344;2022-09-17T07:57:14;13.20;99.90
5919;DHT22;2985;48.142;16.344;2022-09-17T08:02:23;13.30;99.90
5919;DHT22;2985;48.142;16.344;2022-09-17T08:07:32;13.20;99.90
5919;DHT22;2985;48.142;16.344;2022-09-17T08:12:42;13.30;99.90
5919;DHT22;2985;48.142;16.344;2022-09-17T08:17:51;13.30;99.90
5919;DHT22;2985;48.142;16.344;2022-09-17T08:23:00;13.40;99.90
5919;DHT22;2985;48.142;16.344;2022-09-17T08:28:10;13.40;99.90
5919;DHT22;2985;48.142;16.344;2022-09-17T08:33:19;13.40;99.90
5919;DHT22;2985;48.142;16.344;2022-09-17T08:38:30;13.50;99.90
5919;DHT22;2985;48.142;16.344;2022-09-17T08:54:44;13.30;99.90
5919;DHT22;2985;48.142;16.344;2022-09-17T09:00:05;13.10;99.90
5919;DHT22;2985;48.142;16.344;2022-09-17T09:05:22;13.20;99.90
5919;DHT22;2985;48.142;16.344;2022-09-17T09:10:45;13.10;99.90
5919;DHT22;2985;48.142;16.344;2022-09-17T09:16:00;13.00;99.90
5919;DHT22;2985;48.142;16.344;2022-09-17T09:26:48;13.00;99.90
5919;DHT22;2985;48.142;16.344;2022-09-17T09:32:27;13.00;99.90
5919;DHT22;2985;48.142;16.344;2022-09-17T09:37:41;13.00;99.90
5919;DHT22;2985;48.142;16.344;2022-09-17T09:42:54;13.00;99.90
5919;DHT22;2985;48.142;16.344;2022-09-17T09:59:29;13.00;99.90
5919;DHT22;2985;48.142;16.344;2022-09-17T10:04:38;13.10;99.90
5919;DHT22;2985;48.142;16.344;2022-09-17T10:09:47;13.00;99.90
5919;DHT22;2985;48.142;16.344;2022-09-17T10:15:21;13.10;99.90
5919;DHT22;2985;48.142;16.344;2022-09-17T10:20:31;13.00;99.90
5919;DHT22;2985;48.142;16.344;2022-09-17T10:25:44;13.10;99.90
5919;DHT22;2985;48.142;16.344;2022-09-17T10:31:02;13.00;99.90
5919;DHT22;2985;48.142;16.344;2022-09-17T10:36:12;13.20;99.90
5919;DHT22;2985;48.142;16.344;2022-09-17T10:41:22;13.10;99.90
5919;DHT22;2985;48.142;16.344;2022-09-17T10:46:33;13.10;99.90
5919;DHT22;2985;48.142;16.344;2022-09-17T10:51:43;13.20;99.90
5919;DHT22;2985;48.142;16.344;2022-09-17T10:56:56;13.20;99.90
5919;DHT22;2985;48.142;16.344;2022-09-17T11:07:48;13.50;99.90
5919;DHT22;2985;48.142;16.344;2022-09-17T11:13:23;13.70;99.90
5919;DHT22;2985;48.142;16.344;2022-09-17T11:30:07;13.60;99.90
5919;DHT22;2985;48.142;16.344;2022-09-17T11:35:37;13.70;99.90
5919;DHT22;2985;48.142;16.344;2022-09-17T11:46:17;13.50;99.90
5919;DHT22;2985;48.142;16.344;2022-09-17T11:51:35;13.60;99.90
5919;DHT22;2985;48.142;16.344;2022-09-17T11:57:04;13.90;99.90
5919;DHT22;2985;48.142;16.344;2022-09-17T12:13:55;13.50;99.90
5919;DHT22;2985;48.142;16.344;2022-09-17T12:24:33;13.40;99.90
5919;DHT22;2985;48.142;16.344;2022-09-17T12:30:09;13.20;99.90
5919;DHT22;2985;48.142;16.344;2022-09-17T12:51:55;13.00;99.90
5919;DHT22;2985;48.142;16.344;2022-09-17T13:03:00;13.00;99.90
5919;DHT22;2985;48.142;16.344;2022-09-17T13:19:20;13.00;99.90
5919;DHT22;2985;48.142;16.344;2022-09-17T13:24:33;12.90;99.90
5919;DHT22;2985;48.142;16.344;2022-09-17T13:34:52;12.90;99.90
5919;DHT22;2985;48.142;16.344;2022-09-17T13:40:02;12.90;99.90
5919;DHT22;2985;48.142;16.344;2022-09-17T13:45:14;12.90;99.90
5919;DHT22;2985;48.142;16.344;2022-09-17T13:55:46;12.90;99.90
5919;DHT22;2985;48.142;16.344;2022-09-17T14:21:55;12.80;99.90
5919;DHT22;2985;48.142;16.344;2022-09-17T14:33:04;12.80;99.90
5919;DHT22;2985;48.142;16.344;2022-09-17T14:49:20;12.90;99.90
5919;DHT22;2985;48.142;16.344;2022-09-17T14:54:31;12.80;99.90
5919;DHT22;2985;48.142;16.344;2022-09-17T15:04:56;12.80;99.90
5919;DHT22;2985;48.142;16.344;2022-09-17T15:10:10;12.80;99.90
5919;DHT22;2985;48.142;16.344;2022-09-17T15:15:23;12.70;99.90
5919;DHT22;2985;48.142;16.344;2022-09-17T15:20:34;12.80;99.90
5919;DHT22;2985;48.142;16.344;2022-09-17T15:25:44;12.70;99.90
5919;DHT22;2985;48.142;16.344;2022-09-17T15:30:55;12.70;99.90
5919;DHT22;2985;48.142;16.344;2022-09-17T15:36:31;12.70;99.90
5919;DHT22;2985;48.142;16.344;2022-09-17T15:41:41;12.60;99.90
5919;DHT22;2985;48.142;16.344;2022-09-17T15:46:50;12.60;99.90
5919;DHT22;2985;48.142;16.344;2022-09-17T15:52:27;12.60;99.90
5919;DHT22;2985;48.142;16.344;2022-09-17T15:57:42;12.50;99.90
5919;DHT22;2985;48.142;16.344;2022-09-17T16:02:53;12.50;99.90
5919;DHT22;2985;48.142;16.344;2022-09-17T16:08:17;12.50;99.90
5919;DHT22;2985;48.142;16.344;2022-09-17T16:13:26;12.50;99.90
5919;DHT22;2985;48.142;16.344;2022-09-17T16:18:36;12.50;99.90
5919;DHT22;2985;48.142;16.344;2022-09-17T16:23:45;12.40;99.90
5919;DHT22;2985;48.142;16.344;2022-09-17T16:29:06;12.30;99.90
5919;DHT22;2985;48.142;16.344;2022-09-17T16:34:18;12.00;99.90
5919;DHT22;2985;48.142;16.344;2022-09-17T16:39:27;12.00;99.90
5919;DHT22;2985;48.142;16.344;2022-09-17T16:44:36;11.90;99.90
5919;DHT22;2985;48.142;16.344;2022-09-17T16:49:45;11.80;99.90
5919;DHT22;2985;48.142;16.344;2022-09-17T16:54:55;11.50;99.90
5919;DHT22;2985;48.142;16.344;2022-09-17T17:00:06;11.60;99.90
5919;DHT22;2985;48.142;16.344;2022-09-17T17:05:16;11.60;99.90
5919;DHT22;2985;48.142;16.344;2022-09-17T17:15:34;11.40;99.90
5919;DHT22;2985;48.142;16.344;2022-09-17T17:25:53;11.20;99.90
5919;DHT22;2985;48.142;16.344;2022-09-17T17:31:03;11.20;99.90
5919;DHT22;2985;48.142;16.344;2022-09-17T17:36:13;11.10;99.90
5919;DHT22;2985;48.142;16.344;2022-09-17T17:41:22;11.10;99.90
5919;DHT22;2985;48.142;16.344;2022-09-17T17:46:34;11.00;99.90
5919;DHT22;2985;48.142;16.344;2022-09-17T17:51:43;11.00;99.90
5919;DHT22;2985;48.142;16.344;2022-09-17T18:02:03;11.00;99.90
5919;DHT22;2985;48.142;16.344;2022-09-17T18:07:13;11.00;99.90
5919;DHT22;2985;48.142;16.344;2022-09-17T18:12:22;11.00;99.90
5919;DHT22;2985;48.142;16.344;2022-09-17T18:22:44;11.10;99.90
5919;DHT22;2985;48.142;16.344;2022-09-17T18:27:53;11.00;99.90
5919;DHT22;2985;48.142;16.344;2022-09-17T18:33:02;11.00;99.90
5919;DHT22;2985;48.142;16.344;2022-09-17T18:38:12;11.00;99.90
5919;DHT22;2985;48.142;16.344;2022-09-17T18:43:21;11.00;99.90
5919;DHT22;2985;48.142;16.344;2022-09-17T18:48:30;11.10;99.90
5919;DHT22;2985;48.142;16.344;2022-09-17T18:53:40;11.10;99.90
5919;DHT22;2985;48.142;16.344;2022-09-17T18:58:51;11.20;99.90
5919;DHT22;2985;48.142;16.344;2022-09-17T19:04:01;11.20;99.90
5919;DHT22;2985;48.142;16.344;2022-09-17T19:09:11;11.20;99.90
5919;DHT22;2985;48.142;16.344;2022-09-17T19:14:20;11.30;99.90
5919;DHT22;2985;48.142;16.344;2022-09-17T19:24:39;11.50;99.90
5919;DHT22;2985;48.142;16.344;2022-09-17T19:29:48;11.60;99.90
5919;DHT22;2985;48.142;16.344;2022-09-17T19:34:58;11.40;99.90
5919;DHT22;2985;48.142;16.344;2022-09-17T19:45:22;11.60;99.90
5919;DHT22;2985;48.142;16.344;2022-09-17T19:50:31;11.60;99.90
5919;DHT22;2985;48.142;16.344;2022-09-17T19:55:40;11.60;99.90
5919;DHT22;2985;48.142;16.344;2022-09-17T20:00:57;11.50;99.90
5919;DHT22;2985;48.142;16.344;2022-09-17T20:06:09;11.40;99.90
5919;DHT22;2985;48.142;16.344;2022-09-17T20:11:22;11.30;99.90
5919;DHT22;2985;48.142;16.344;2022-09-17T20:16:33;11.30;99.90
5919;DHT22;2985;48.142;16.344;2022-09-17T20:21:42;11.30;99.90
5919;DHT22;2985;48.142;16.344;2022-09-17T20:26:52;11.30;99.90
5919;DHT22;2985;48.142;16.344;2022-09-17T20:32:01;11.20;99.90
5919;DHT22;2985;48.142;16.344;2022-09-17T20:37:10;11.20;99.90
5919;DHT22;2985;48.142;16.344;2022-09-17T20:42:19;11.20;99.90
5919;DHT22;2985;48.142;16.344;2022-09-17T20:47:28;11.10;99.90
5919;DHT22;2985;48.142;16.344;2022-09-17T20:52:37;11.10;99.90
5919;DHT22;2985;48.142;16.344;2022-09-17T20:57:46;11.00;99.90
5919;DHT22;2985;48.142;16.344;2022-09-17T21:02:56;11.00;99.90
5919;DHT22;2985;48.142;16.344;2022-09-17T21:08:05;11.00;99.90
5919;DHT22;2985;48.142;16.344;2022-09-17T21:13:14;10.90;99.90
5919;DHT22;2985;48.142;16.344;2022-09-17T21:18:23;10.80;99.90
5919;DHT22;2985;48.142;16.344;2022-09-17T21:23:35;10.80;99.90
5919;DHT22;2985;48.142;16.344;2022-09-17T21:28:46;10.80;99.90
5919;DHT22;2985;48.142;16.344;2022-09-17T21:33:59;10.70;99.90
5919;DHT22;2985;48.142;16.344;2022-09-17T21:39:14;10.70;99.90
5919;DHT22;2985;48.142;16.344;2022-09-17T21:44:23;10.60;99.90
5919;DHT22;2985;48.142;16.344;2022-09-17T21:49:32;10.60;99.90
5919;DHT22;2985;48.142;16.344;2022-09-17T21:54:42;10.60;99.90
5919;DHT22;2985;48.142;16.344;2022-09-17T21:59:51;10.60;99.90
5919;DHT22;2985;48.142;16.344;2022-09-17T22:05:00;10.60;99.90
5919;DHT22;2985;48.142;16.344;2022-09-17T22:10:09;10.60;99.90
5919;DHT22;2985;48.142;16.344;2022-09-17T22:15:22;10.60;99.90
5919;DHT22;2985;48.142;16.344;2022-09-17T22:20:31;10.50;99.90
5919;DHT22;2985;48.142;16.344;2022-09-17T22:25:41;10.50;99.90
5919;DHT22;2985;48.142;16.344;2022-09-17T22:30:50;10.50;99.90
5919;DHT22;2985;48.142;16.344;2022-09-17T22:36:04;10.50;99.90
5919;DHT22;2985;48.142;16.344;2022-09-17T22:41:17;10.40;99.90
5919;DHT22;2985;48.142;16.344;2022-09-17T22:46:30;10.50;99.90
5919;DHT22;2985;48.142;16.344;2022-09-17T22:51:41;10.50;99.90
5919;DHT22;2985;48.142;16.344;2022-09-17T22:56:50;10.50;99.90
5919;DHT22;2985;48.142;16.344;2022-09-17T23:02:00;10.50;99.90
5919;DHT22;2985;48.142;16.344;2022-09-17T23:07:09;10.50;99.90
5919;DHT22;2985;48.142;16.344;2022-09-17T23:12:20;10.50;99.90
5919;DHT22;2985;48.142;16.344;2022-09-17T23:17:29;10.50;99.90
5919;DHT22;2985;48.142;16.344;2022-09-17T23:22:38;10.40;99.90
5919;DHT22;2985;48.142;16.344;2022-09-17T23:27:48;10.40;99.90
5919;DHT22;2985;48.142;16.344;2022-09-17T23:32:57;10.30;99.90
5919;DHT22;2985;48.142;16.344;2022-09-17T23:38:07;10.30;99.90
5919;DHT22;2985;48.142;16.344;2022-09-17T23:43:16;10.20;99.90
5919;DHT22;2985;48.142;16.344;2022-09-17T23:48:25;10.30;99.90
5919;DHT22;2985;48.142;16.344;2022-09-17T23:53:35;10.30;99.90
5919;DHT22;2985;48.142;16.344;2022-09-17T23:58:44;10.30;99.90
